Time;durP1;ratioP1;P1;durP2;ratioP2;P2;SDS_P1;SDS_P2;PMS_P1;PMS_P2;Temp;Humidity;BMP_temperature;BMP_pressure;BME280_temperature;BME280_humidity;BME280_pressure;Samples;Min_cycle;Max_cycle;Signal;HPM_P1;HPM_P2
2021/12/16 00:01:49;;;;;;;1.85;1.45;;;;;;;;;;5021080;28;20534;-74
2021/12/16 00:04:19;;;;;;;0.40;0.40;;;;;;;;;;5020193;28;20037;-74
2021/12/16 00:07:05;;;;;;;1.42;1.23;;;;;;;;;;5031490;28;20029;-74
2021/12/16 00:09:42;;;;;;;1.40;1.30;;;;;;;;;;5024294;28;20041;-74
2021/12/16 00:31:17;;;;;;;4.60;1.13;;;;;;;;;;5026845;28;20044;-72
2021/12/16 00:33:46;;;;;;;6.70;2.15;;;;;;;;;;5032700;28;20128;-73
2021/12/16 00:36:13;;;;;;;2.20;1.58;;;;;;;;;;5025813;28;20585;-72
2021/12/16 00:38:40;;;;;;;2.22;1.58;;;;;;;;;;5032229;28;20035;-72
2021/12/16 00:41:06;;;;;;;1.23;1.13;;;;;;;;;;5033413;28;20029;-72
2021/12/16 00:43:39;;;;;;;1.75;1.65;;;;;;;;;;5026093;28;20798;-72
2021/12/16 00:54:10;;;;;;;7.13;3.17;;;;;;;;;;5026290;28;20044;-72
2021/12/16 00:56:37;;;;;;;1.70;1.60;;;;;;;;;;5031699;28;20517;-72
2021/12/16 00:59:06;;;;;;;2.22;2.03;;;;;;;;;;5035123;28;20029;-73
2021/12/16 01:01:51;;;;;;;0.75;0.75;;;;;;;;;;5026498;28;20029;-72
2021/12/16 01:07:22;;;;;;;0.65;0.65;;;;;;;;;;5036012;28;20090;-74
2021/12/16 01:34:58;;;;;;;2.72;1.88;;;;;;;;;;5027111;28;20056;-72
2021/12/16 01:38:13;;;;;;;1.35;1.25;;;;;;;;;;5033142;28;20420;-72
2021/12/16 01:41:42;;;;;;;1.35;1.23;;;;;;;;;;5034641;28;20030;-72
2021/12/16 01:46:29;;;;;;;4.15;2.13;;;;;;;;;;5032918;28;20392;-72
2021/12/16 01:51:22;;;;;;;1.92;1.77;;;;;;;;;;5030400;28;20407;-72
2021/12/16 01:54:40;;;;;;;2.15;2.05;;;;;;;;;;5023294;28;20037;-73
2021/12/16 01:59:05;;;;;;;3.90;2.05;;;;;;;;;;5032212;28;20514;-73
2021/12/16 02:01:34;;;;;;;2.13;1.65;;;;;;;;;;5033031;28;20120;-72
2021/12/16 02:04:02;;;;;;;2.33;1.20;;;;;;;;;;5029889;28;20032;-72
2021/12/16 02:06:45;;;;;;;2.80;1.25;;;;;;;;;;5036672;28;20432;-72
2021/12/16 02:09:23;;;;;;;1.38;1.20;;;;;;;;;;5025458;28;21147;-72
2021/12/16 02:31:17;;;;;;;1.70;1.60;;;;;;;;;;5046192;28;20037;-72
2021/12/16 02:38:47;;;;;;;5.70;1.70;;;;;;;;;;5036963;28;20065;-73
2021/12/16 02:41:13;;;;;;;0.15;0.15;;;;;;;;;;5042552;28;20463;-73
2021/12/16 02:49:09;;;;;;;1.10;1.02;;;;;;;;;;5035685;28;20041;-73
2021/12/16 02:51:35;;;;;;;4.53;1.13;;;;;;;;;;5023117;28;20037;-73
2021/12/16 02:54:04;;;;;;;0.50;0.50;;;;;;;;;;5026032;28;20144;-73
2021/12/16 02:56:31;;;;;;;0.32;0.30;;;;;;;;;;5020453;28;20099;-73
2021/12/16 02:58:57;;;;;;;0.43;0.43;;;;;;;;;;5019944;28;20396;-73
2021/12/16 03:01:41;;;;;;;0.43;0.43;;;;;;;;;;5029081;28;20029;-73
2021/12/16 03:04:09;;;;;;;0.85;0.25;;;;;;;;;;5030129;28;20026;-73
2021/12/16 03:06:36;;;;;;;0.38;0.38;;;;;;;;;;5026627;28;20094;-73
2021/12/16 03:09:04;;;;;;;0.85;0.85;;;;;;;;;;5027427;28;20029;-73
2021/12/16 03:12:13;;;;;;;1.73;0.25;;;;;;;;;;5032523;28;20472;-73
2021/12/16 03:14:57;;;;;;;1.27;0.88;;;;;;;;;;5025261;28;20025;-72
2021/12/16 03:17:25;;;;;;;2.55;2.10;;;;;;;;;;5028804;28;20060;-73
2021/12/16 03:20:14;;;;;;;0.40;0.40;;;;;;;;;;5023281;28;20029;-73
2021/12/16 03:25:22;;;;;;;1.80;1.65;;;;;;;;;;5023068;28;20045;-73
2021/12/16 03:30:27;;;;;;;0.43;0.43;;;;;;;;;;5025241;28;20028;-72
2021/12/16 03:33:23;;;;;;;0.50;0.50;;;;;;;;;;5030186;28;20104;-73
2021/12/16 03:36:04;;;;;;;4.47;1.27;;;;;;;;;;5029211;28;20021;-73
2021/12/16 03:38:31;;;;;;;0.65;0.65;;;;;;;;;;5025252;28;20025;-73
2021/12/16 03:40:57;;;;;;;0.20;0.20;;;;;;;;;;5034753;28;20369;-73
2021/12/16 03:43:24;;;;;;;2.90;1.30;;;;;;;;;;5028445;28;20017;-73
2021/12/16 03:48:41;;;;;;;0.85;0.85;;;;;;;;;;5022827;28;20488;-72
2021/12/16 03:51:09;;;;;;;0.13;0.13;;;;;;;;;;5020861;28;20116;-73
2021/12/16 03:53:36;;;;;;;0.95;0.75;;;;;;;;;;5026734;28;20567;-73
2021/12/16 03:56:02;;;;;;;29.40;0.65;;;;;;;;;;5034929;28;20045;-73
2021/12/16 03:58:28;;;;;;;0.43;0.43;;;;;;;;;;5031156;28;20051;-73
2021/12/16 04:01:01;;;;;;;0.93;0.55;;;;;;;;;;5031353;28;20029;-73
2021/12/16 04:03:27;;;;;;;0.52;0.52;;;;;;;;;;5031946;28;20033;-73
2021/12/16 04:05:53;;;;;;;1.35;0.75;;;;;;;;;;5025015;28;20033;-73
2021/12/16 04:08:20;;;;;;;0.57;0.57;;;;;;;;;;5034180;28;20751;-73
2021/12/16 04:11:04;;;;;;;1.35;1.25;;;;;;;;;;5026832;28;20025;-73
2021/12/16 04:13:31;;;;;;;2.17;1.02;;;;;;;;;;5037692;28;20040;-72
2021/12/16 04:15:57;;;;;;;0.05;0.05;;;;;;;;;;5034286;28;20025;-73
2021/12/16 04:18:23;;;;;;;0.70;0.70;;;;;;;;;;5032194;28;20383;-73
2021/12/16 04:20:49;;;;;;;2.28;0.47;;;;;;;;;;5035223;28;20030;-73
2021/12/16 04:23:18;;;;;;;0.10;0.10;;;;;;;;;;5027414;28;20034;-73
2021/12/16 04:25:45;;;;;;;0.17;0.17;;;;;;;;;;5029195;28;20029;-73
2021/12/16 04:28:14;;;;;;;0.50;0.50;;;;;;;;;;5034659;28;20081;-73
2021/12/16 04:30:40;;;;;;;0.45;0.35;;;;;;;;;;5022706;28;20037;-73
2021/12/16 04:33:07;;;;;;;0.90;0.55;;;;;;;;;;5024457;28;20455;-73
2021/12/16 04:35:33;;;;;;;0.20;0.20;;;;;;;;;;5028226;28;20041;-73
2021/12/16 04:37:59;;;;;;;0.95;0.45;;;;;;;;;;5029958;28;20033;-73
2021/12/16 04:40:27;;;;;;;2.63;1.35;;;;;;;;;;5031176;28;20036;-73
2021/12/16 04:42:59;;;;;;;0.88;0.43;;;;;;;;;;5026698;28;20036;-74
2021/12/16 04:45:26;;;;;;;0.30;0.30;;;;;;;;;;5043192;28;20043;-74
2021/12/16 04:47:52;;;;;;;0.50;0.50;;;;;;;;;;5031508;28;20120;-74
2021/12/16 04:50:19;;;;;;;3.40;1.00;;;;;;;;;;5029472;28;20025;-74
2021/12/16 04:52:45;;;;;;;0.43;0.43;;;;;;;;;;5044280;28;20047;-74
2021/12/16 04:55:12;;;;;;;0.00;0.00;;;;;;;;;;5027387;28;20025;-74
2021/12/16 04:57:38;;;;;;;0.10;0.10;;;;;;;;;;5037230;28;20399;-73
2021/12/16 05:00:05;;;;;;;0.43;0.43;;;;;;;;;;5044945;28;20029;-74
2021/12/16 05:02:31;;;;;;;0.70;0.70;;;;;;;;;;5045314;28;20082;-74
2021/12/16 05:04:56;;;;;;;0.75;0.70;;;;;;;;;;5028065;28;20488;-74
2021/12/16 05:07:23;;;;;;;2.33;2.13;;;;;;;;;;5031604;28;20033;-74
2021/12/16 05:10:03;;;;;;;1.35;1.25;;;;;;;;;;5023877;28;20025;-73
2021/12/16 05:12:33;;;;;;;0.32;0.32;;;;;;;;;;5022715;28;20032;-74
2021/12/16 05:14:59;;;;;;;2.50;1.83;;;;;;;;;;5023885;28;20034;-74
2021/12/16 05:17:34;;;;;;;1.02;0.52;;;;;;;;;;5036867;28;20044;-74
2021/12/16 05:20:05;;;;;;;0.10;0.10;;;;;;;;;;5036936;28;20060;-74
2021/12/16 05:25:31;;;;;;;2.30;1.05;;;;;;;;;;5027857;28;20072;-74
2021/12/16 05:27:57;;;;;;;0.30;0.30;;;;;;;;;;5033225;28;20025;-74
2021/12/16 05:30:23;;;;;;;3.60;1.50;;;;;;;;;;5027460;28;20473;-74
2021/12/16 05:32:49;;;;;;;8.48;2.75;;;;;;;;;;5027211;28;20025;-74
2021/12/16 05:35:17;;;;;;;5.07;1.25;;;;;;;;;;5025495;28;20034;-74
2021/12/16 05:37:44;;;;;;;0.68;0.68;;;;;;;;;;5032343;28;20037;-74
2021/12/16 05:40:11;;;;;;;1.60;1.00;;;;;;;;;;5032460;28;20107;-74
2021/12/16 05:42:37;;;;;;;2.17;1.85;;;;;;;;;;5023650;28;20032;-74
2021/12/16 05:45:04;;;;;;;0.88;0.82;;;;;;;;;;5029282;28;20013;-74
2021/12/16 05:47:30;;;;;;;0.85;0.85;;;;;;;;;;5028420;28;20045;-74
2021/12/16 05:49:56;;;;;;;1.77;1.67;;;;;;;;;;5037688;28;20072;-74
2021/12/16 05:52:22;;;;;;;0.35;0.35;;;;;;;;;;5036052;28;20037;-73
2021/12/16 05:54:48;;;;;;;0.98;0.93;;;;;;;;;;5041655;28;20074;-75
2021/12/16 05:57:13;;;;;;;0.45;0.45;;;;;;;;;;5029497;28;20076;-73
2021/12/16 05:59:39;;;;;;;2.20;2.03;;;;;;;;;;5038805;28;20037;-74
2021/12/16 06:02:06;;;;;;;0.85;0.85;;;;;;;;;;5036711;28;20028;-74
2021/12/16 06:04:33;;;;;;;0.75;0.75;;;;;;;;;;5032587;28;20013;-73
2021/12/16 06:06:59;;;;;;;1.55;1.08;;;;;;;;;;5038015;28;20092;-74
2021/12/16 06:09:25;;;;;;;0.52;0.52;;;;;;;;;;5044120;28;20033;-74
2021/12/16 06:11:52;;;;;;;0.50;0.50;;;;;;;;;;5035616;28;20049;-74
2021/12/16 06:14:46;;;;;;;0.40;0.40;;;;;;;;;;5039939;28;20496;-74
2021/12/16 06:23:04;;;;;;;0.55;0.55;;;;;;;;;;5040427;28;20044;-74
2021/12/16 06:26:29;;;;;;;1.52;0.82;;;;;;;;;;5039857;28;20041;-74
2021/12/16 06:28:23;;;;;;;0.55;0.55;;;;;;;;;;5025689;28;20037;-74
2021/12/16 06:30:50;;;;;;;0.75;0.75;;;;;;;;;;5031030;28;20041;-74
2021/12/16 06:33:19;;;;;;;1.10;0.85;;;;;;;;;;5028827;28;20025;-74
2021/12/16 06:35:45;;;;;;;0.70;0.65;;;;;;;;;;5024299;28;20030;-74
2021/12/16 06:38:12;;;;;;;0.25;0.25;;;;;;;;;;5025968;28;20032;-74
2021/12/16 06:40:38;;;;;;;0.20;0.20;;;;;;;;;;5038116;28;20040;-73
2021/12/16 06:43:05;;;;;;;1.33;0.25;;;;;;;;;;5039128;28;20033;-74
2021/12/16 06:45:35;;;;;;;1.30;1.20;;;;;;;;;;5041342;28;20032;-74
2021/12/16 06:48:10;;;;;;;2.23;1.50;;;;;;;;;;5026524;28;20495;-74
2021/12/16 06:50:51;;;;;;;0.68;0.50;;;;;;;;;;5036349;28;20400;-74
2021/12/16 06:53:25;;;;;;;5.38;1.85;;;;;;;;;;5037838;28;20452;-74
2021/12/16 06:56:04;;;;;;;1.33;0.28;;;;;;;;;;5044905;28;20037;-74
2021/12/16 06:58:39;;;;;;;0.82;0.55;;;;;;;;;;5029487;28;20590;-74
2021/12/16 07:01:13;;;;;;;1.63;1.52;;;;;;;;;;5023168;28;20028;-74
2021/12/16 07:03:47;;;;;;;1.98;0.80;;;;;;;;;;5028265;28;20029;-74
2021/12/16 07:06:14;;;;;;;1.02;0.90;;;;;;;;;;5026195;28;20520;-75
2021/12/16 07:08:40;;;;;;;0.73;0.73;;;;;;;;;;5027808;28;20041;-74
2021/12/16 07:11:06;;;;;;;0.60;0.60;;;;;;;;;;5028655;28;20103;-74
2021/12/16 07:13:40;;;;;;;0.85;0.68;;;;;;;;;;5030361;28;20052;-74
2021/12/16 07:16:06;;;;;;;5.47;1.45;;;;;;;;;;5036568;28;20033;-74
2021/12/16 07:18:32;;;;;;;0.10;0.10;;;;;;;;;;5029763;28;20128;-75
2021/12/16 07:20:58;;;;;;;0.45;0.45;;;;;;;;;;5020118;28;20033;-76
2021/12/16 07:23:24;;;;;;;0.68;0.60;;;;;;;;;;5024209;28;20052;-75
2021/12/16 07:25:50;;;;;;;3.67;1.20;;;;;;;;;;5030993;28;20041;-74
2021/12/16 07:28:16;;;;;;;4.40;1.98;;;;;;;;;;5030259;28;20103;-75
2021/12/16 07:30:44;;;;;;;2.92;0.90;;;;;;;;;;5031856;28;20025;-75
2021/12/16 07:33:12;;;;;;;1.17;1.08;;;;;;;;;;5035764;28;20032;-74
2021/12/16 07:35:38;;;;;;;4.95;1.85;;;;;;;;;;5025601;28;20021;-76
2021/12/16 07:38:04;;;;;;;1.50;0.85;;;;;;;;;;5028461;28;20045;-75
2021/12/16 07:40:31;;;;;;;11.75;3.13;;;;;;;;;;5034246;28;20025;-74
2021/12/16 07:45:30;;;;;;;39.05;3.58;;;;;;;;;;5027577;28;20025;-73
2021/12/16 07:47:56;;;;;;;1.10;1.05;;;;;;;;;;5029928;28;20499;-73
2021/12/16 07:50:22;;;;;;;1.42;1.33;;;;;;;;;;5024684;28;20028;-76
2021/12/16 07:52:48;;;;;;;0.77;0.77;;;;;;;;;;5023824;28;20032;-77
2021/12/16 07:55:15;;;;;;;1.50;1.35;;;;;;;;;;5028781;28;20489;-77
2021/12/16 07:57:41;;;;;;;1.27;1.17;;;;;;;;;;5034791;28;20437;-83
2021/12/16 08:00:10;;;;;;;0.85;0.85;;;;;;;;;;5034868;28;20555;-81
2021/12/16 08:02:37;;;;;;;2.42;1.38;;;;;;;;;;5023552;28;20707;-78
2021/12/16 08:05:03;;;;;;;0.75;0.73;;;;;;;;;;5019304;28;20029;-77
2021/12/16 08:07:29;;;;;;;4.65;2.30;;;;;;;;;;5023466;28;20083;-76
2021/12/16 08:09:55;;;;;;;1.05;1.05;;;;;;;;;;5020016;28;20587;-78
2021/12/16 08:12:21;;;;;;;0.22;0.22;;;;;;;;;;5029542;28;20033;-77
2021/12/16 08:14:47;;;;;;;4.10;1.63;;;;;;;;;;5028931;28;20091;-73
2021/12/16 08:17:14;;;;;;;0.35;0.35;;;;;;;;;;5034737;28;20598;-74
2021/12/16 08:19:41;;;;;;;3.25;1.90;;;;;;;;;;5025870;28;20029;-75
2021/12/16 08:22:07;;;;;;;2.50;2.30;;;;;;;;;;5027930;28;20033;-75
2021/12/16 08:24:33;;;;;;;1.75;1.65;;;;;;;;;;5041820;28;20040;-75
2021/12/16 08:26:59;;;;;;;0.28;0.28;;;;;;;;;;5044366;28;20499;-75
2021/12/16 08:29:25;;;;;;;1.77;0.95;;;;;;;;;;5040862;28;20029;-75
2021/12/16 08:31:52;;;;;;;0.10;0.10;;;;;;;;;;5035293;28;20071;-78
2021/12/16 08:34:18;;;;;;;0.52;0.52;;;;;;;;;;5026344;28;20021;-76
2021/12/16 08:36:45;;;;;;;0.85;0.85;;;;;;;;;;5030626;28;20037;-73
2021/12/16 08:39:11;;;;;;;0.45;0.45;;;;;;;;;;5040096;28;20033;-76
2021/12/16 08:41:39;;;;;;;0.30;0.30;;;;;;;;;;5030979;28;20041;-72
2021/12/16 08:44:05;;;;;;;1.75;1.52;;;;;;;;;;5025966;28;20373;-74
2021/12/16 08:46:33;;;;;;;1.35;1.27;;;;;;;;;;5045484;28;20508;-73
2021/12/16 08:48:59;;;;;;;4.13;1.45;;;;;;;;;;5031063;28;20040;-73
2021/12/16 08:51:27;;;;;;;1.00;1.00;;;;;;;;;;5034921;28;20454;-73
2021/12/16 08:53:54;;;;;;;0.38;0.38;;;;;;;;;;5026599;28;20476;-73
2021/12/16 08:56:20;;;;;;;0.70;0.70;;;;;;;;;;5032142;28;20029;-76
2021/12/16 08:58:46;;;;;;;0.35;0.35;;;;;;;;;;5024836;28;20028;-74
2021/12/16 09:01:15;;;;;;;0.10;0.10;;;;;;;;;;5025309;28;20026;-71
2021/12/16 09:03:41;;;;;;;0.30;0.30;;;;;;;;;;5028631;28;20021;-71
2021/12/16 09:06:08;;;;;;;6.40;1.13;;;;;;;;;;5027075;28;20536;-71
2021/12/16 09:08:34;;;;;;;2.03;1.80;;;;;;;;;;5030388;28;20044;-70
2021/12/16 09:11:04;;;;;;;1.45;1.35;;;;;;;;;;5030319;28;20037;-71
2021/12/16 09:13:30;;;;;;;1.55;0.30;;;;;;;;;;5035933;28;20056;-71
2021/12/16 09:15:59;;;;;;;2.55;0.47;;;;;;;;;;5030197;28;20039;-71
2021/12/16 09:18:27;;;;;;;0.57;0.55;;;;;;;;;;5043521;28;20044;-71
2021/12/16 09:20:53;;;;;;;0.45;0.43;;;;;;;;;;5023191;28;20112;-71
2021/12/16 09:23:20;;;;;;;1.92;0.60;;;;;;;;;;5029505;28;20475;-71
2021/12/16 09:25:47;;;;;;;0.75;0.75;;;;;;;;;;5030044;28;20055;-71
2021/12/16 09:28:13;;;;;;;0.52;0.50;;;;;;;;;;5028552;28;20048;-70
2021/12/16 09:30:39;;;;;;;1.27;1.17;;;;;;;;;;5032889;28;20492;-70
2021/12/16 09:33:12;;;;;;;0.47;0.47;;;;;;;;;;5026950;28;20099;-70
2021/12/16 09:35:39;;;;;;;1.45;1.30;;;;;;;;;;5033269;28;20040;-70
2021/12/16 09:38:07;;;;;;;0.77;0.77;;;;;;;;;;5033838;28;20037;-70
2021/12/16 09:40:36;;;;;;;0.25;0.25;;;;;;;;;;5042335;28;20095;-70
2021/12/16 09:43:03;;;;;;;0.13;0.13;;;;;;;;;;5029007;28;20028;-70
2021/12/16 09:45:29;;;;;;;0.82;0.82;;;;;;;;;;5041328;28;20444;-71
2021/12/16 09:47:55;;;;;;;0.20;0.20;;;;;;;;;;5022461;28;20064;-70
2021/12/16 09:50:23;;;;;;;1.90;1.45;;;;;;;;;;5035866;28;20061;-70
2021/12/16 09:52:50;;;;;;;0.47;0.47;;;;;;;;;;5034747;28;20040;-70
2021/12/16 09:55:16;;;;;;;3.10;0.95;;;;;;;;;;5032662;28;20033;-70
2021/12/16 09:57:42;;;;;;;0.93;0.70;;;;;;;;;;5030393;28;20056;-70
2021/12/16 10:00:11;;;;;;;0.38;0.30;;;;;;;;;;5030771;28;20492;-71
2021/12/16 10:02:38;;;;;;;2.25;1.40;;;;;;;;;;5024346;28;20054;-70
2021/12/16 10:05:05;;;;;;;0.38;0.38;;;;;;;;;;5021522;28;20040;-71
2021/12/16 10:07:33;;;;;;;0.43;0.43;;;;;;;;;;5023391;28;20060;-72
2021/12/16 10:10:00;;;;;;;1.05;1.00;;;;;;;;;;5024720;28;20033;-71
2021/12/16 10:12:32;;;;;;;1.73;1.63;;;;;;;;;;5023893;28;20506;-72
2021/12/16 10:15:05;;;;;;;3.75;1.27;;;;;;;;;;5022103;28;20018;-71
2021/12/16 10:17:36;;;;;;;1.02;0.95;;;;;;;;;;5029038;28;20025;-71
2021/12/16 10:20:09;;;;;;;0.32;0.32;;;;;;;;;;5019502;28;20061;-71
2021/12/16 10:22:41;;;;;;;0.10;0.10;;;;;;;;;;5024158;28;20041;-72
2021/12/16 10:25:20;;;;;;;0.10;0.10;;;;;;;;;;5025009;28;20045;-72
2021/12/16 10:28:12;;;;;;;0.82;0.82;;;;;;;;;;5028114;28;20091;-72
2021/12/16 10:30:40;;;;;;;0.38;0.38;;;;;;;;;;5029086;28;20086;-72
2021/12/16 10:33:10;;;;;;;0.98;0.98;;;;;;;;;;5027966;28;20024;-72
2021/12/16 10:35:36;;;;;;;0.85;0.85;;;;;;;;;;5029668;28;20511;-72
2021/12/16 10:38:05;;;;;;;0.10;0.10;;;;;;;;;;5026630;28;20029;-72
2021/12/16 10:40:40;;;;;;;0.10;0.10;;;;;;;;;;5018133;28;20075;-71
2021/12/16 10:43:09;;;;;;;0.63;0.45;;;;;;;;;;5028519;28;20056;-71
2021/12/16 10:45:38;;;;;;;1.58;1.48;;;;;;;;;;5023402;28;20033;-72
2021/12/16 10:48:11;;;;;;;0.20;0.20;;;;;;;;;;5024134;28;20499;-72
2021/12/16 10:50:50;;;;;;;0.35;0.35;;;;;;;;;;5038576;28;20025;-72
2021/12/16 10:53:18;;;;;;;1.08;0.73;;;;;;;;;;5028949;28;20028;-72
2021/12/16 10:56:00;;;;;;;0.22;0.22;;;;;;;;;;5033572;28;20037;-72
2021/12/16 10:58:44;;;;;;;0.77;0.52;;;;;;;;;;5028327;28;20043;-73
2021/12/16 11:01:30;;;;;;;0.80;0.70;;;;;;;;;;5025539;28;20823;-72
2021/12/16 11:03:56;;;;;;;0.20;0.20;;;;;;;;;;5026420;28;20021;-72
2021/12/16 11:06:32;;;;;;;0.00;0.00;;;;;;;;;;5026109;28;20501;-72
2021/12/16 11:09:18;;;;;;;0.52;0.52;;;;;;;;;;5029485;28;20036;-73
2021/12/16 11:11:47;;;;;;;0.45;0.45;;;;;;;;;;5024203;28;20107;-73
2021/12/16 11:14:13;;;;;;;0.38;0.38;;;;;;;;;;5017621;28;20445;-72
2021/12/16 11:16:39;;;;;;;0.30;0.25;;;;;;;;;;5025044;28;20024;-72
2021/12/16 11:19:06;;;;;;;0.00;0.00;;;;;;;;;;5026540;28;20514;-72
2021/12/16 11:21:41;;;;;;;1.25;0.80;;;;;;;;;;5026617;28;20032;-72
2021/12/16 11:24:26;;;;;;;0.00;0.00;;;;;;;;;;5029094;28;20737;-72
2021/12/16 11:26:52;;;;;;;0.28;0.28;;;;;;;;;;5028943;28;20049;-72
2021/12/16 11:29:18;;;;;;;0.20;0.20;;;;;;;;;;5015101;28;20043;-72
2021/12/16 11:31:48;;;;;;;0.22;0.22;;;;;;;;;;5029848;28;20132;-72
2021/12/16 11:34:15;;;;;;;0.28;0.28;;;;;;;;;;5031110;28;20108;-72
2021/12/16 11:36:43;;;;;;;0.10;0.10;;;;;;;;;;5020833;28;20190;-72
2021/12/16 11:39:20;;;;;;;0.38;0.38;;;;;;;;;;5024134;28;20106;-72
2021/12/16 11:41:53;;;;;;;0.30;0.30;;;;;;;;;;5020024;28;20423;-72
2021/12/16 11:44:28;;;;;;;0.40;0.40;;;;;;;;;;5026666;28;20028;-72
2021/12/16 11:47:14;;;;;;;0.10;0.10;;;;;;;;;;5026846;28;20052;-72
2021/12/16 11:49:43;;;;;;;0.10;0.10;;;;;;;;;;5035572;28;20464;-72
2021/12/16 11:52:19;;;;;;;0.38;0.38;;;;;;;;;;5030777;28;20903;-72
2021/12/16 11:55:05;;;;;;;0.00;0.00;;;;;;;;;;5028584;28;20060;-72
2021/12/16 11:57:38;;;;;;;0.08;0.08;;;;;;;;;;5038476;28;20067;-72
2021/12/16 12:00:12;;;;;;;0.20;0.20;;;;;;;;;;5023787;28;20116;-72
2021/12/16 12:02:49;;;;;;;3.75;0.88;;;;;;;;;;5031517;28;20037;-73
2021/12/16 12:05:19;;;;;;;1.00;0.80;;;;;;;;;;5021364;28;20502;-71
2021/12/16 12:07:47;;;;;;;0.52;0.30;;;;;;;;;;5035295;28;20040;-71
2021/12/16 12:10:15;;;;;;;0.10;0.10;;;;;;;;;;5022465;28;20619;-71
2021/12/16 12:12:46;;;;;;;0.15;0.15;;;;;;;;;;5027113;28;20039;-71
2021/12/16 12:15:13;;;;;;;0.08;0.08;;;;;;;;;;5028716;28;20037;-72
2021/12/16 12:17:52;;;;;;;0.20;0.20;;;;;;;;;;5039699;28;20029;-72
2021/12/16 12:20:19;;;;;;;0.68;0.68;;;;;;;;;;5033075;28;20033;-74
2021/12/16 12:22:49;;;;;;;0.20;0.20;;;;;;;;;;5025052;28;20039;-73
2021/12/16 12:25:15;;;;;;;0.08;0.08;;;;;;;;;;5042095;28;20458;-72
2021/12/16 12:27:41;;;;;;;0.20;0.20;;;;;;;;;;5035105;28;20062;-74
2021/12/16 12:30:08;;;;;;;0.55;0.52;;;;;;;;;;5034400;28;20036;-76
2021/12/16 12:32:35;;;;;;;0.25;0.25;;;;;;;;;;5029907;28;20021;-73
2021/12/16 12:35:06;;;;;;;0.55;0.32;;;;;;;;;;5039935;28;20386;-74
2021/12/16 12:37:34;;;;;;;0.10;0.10;;;;;;;;;;5025762;28;20022;-76
2021/12/16 12:40:19;;;;;;;0.47;0.30;;;;;;;;;;5037472;28;20475;-77
2021/12/16 12:42:45;;;;;;;0.00;0.00;;;;;;;;;;5029140;28;20484;-73
2021/12/16 12:45:12;;;;;;;0.10;0.10;;;;;;;;;;5032906;28;20035;-74
2021/12/16 12:47:41;;;;;;;0.00;0.00;;;;;;;;;;5038135;28;20027;-77
2021/12/16 12:50:18;;;;;;;0.00;0.00;;;;;;;;;;5037007;28;20032;-77
2021/12/16 12:52:47;;;;;;;0.65;0.65;;;;;;;;;;5036104;28;20474;-74
2021/12/16 12:55:18;;;;;;;0.20;0.20;;;;;;;;;;5033828;28;20483;-74
2021/12/16 12:57:44;;;;;;;0.10;0.10;;;;;;;;;;5031654;28;20021;-73
2021/12/16 13:00:26;;;;;;;0.20;0.20;;;;;;;;;;5027637;28;20025;-73
2021/12/16 13:02:59;;;;;;;0.00;0.00;;;;;;;;;;5035132;28;20031;-73
2021/12/16 13:05:28;;;;;;;0.22;0.22;;;;;;;;;;5035354;28;20053;-73
2021/12/16 13:07:58;;;;;;;0.47;0.47;;;;;;;;;;5053139;28;20108;-74
2021/12/16 13:10:28;;;;;;;0.30;0.30;;;;;;;;;;5028960;28;20044;-74
2021/12/16 13:13:02;;;;;;;0.00;0.00;;;;;;;;;;5030031;28;20017;-74
2021/12/16 13:15:49;;;;;;;0.30;0.20;;;;;;;;;;5028893;28;20037;-73
2021/12/16 13:27:06;;;;;;;0.68;0.68;;;;;;;;;;5037118;28;20044;-73
2021/12/16 13:29:37;;;;;;;0.32;0.28;;;;;;;;;;5028893;28;20554;-75
2021/12/16 13:32:11;;;;;;;0.10;0.10;;;;;;;;;;5031837;28;20033;-74
2021/12/16 13:34:53;;;;;;;1.27;1.05;;;;;;;;;;5027915;28;20037;-73
2021/12/16 13:37:39;;;;;;;0.10;0.10;;;;;;;;;;5024366;28;20524;-74
2021/12/16 13:40:17;;;;;;;0.30;0.15;;;;;;;;;;5025396;28;20038;-73
2021/12/16 13:42:47;;;;;;;0.10;0.10;;;;;;;;;;5033382;28;20515;-73
2021/12/16 13:45:18;;;;;;;0.70;0.30;;;;;;;;;;5035264;28;20333;-74
2021/12/16 14:01:37;;;;;;;0.25;0.25;;;;;;;;;;5029804;28;20120;-73
2021/12/16 14:04:37;;;;;;;0.00;0.00;;;;;;;;;;5029968;28;20021;-73
2021/12/16 14:07:26;;;;;;;0.00;0.00;;;;;;;;;;5029914;28;20777;-74
2021/12/16 14:10:17;;;;;;;0.10;0.10;;;;;;;;;;5024768;28;20022;-72
2021/12/16 14:14:06;;;;;;;0.38;0.32;;;;;;;;;;5027875;28;20029;-73
2021/12/16 14:16:00;;;;;;;1.20;1.10;;;;;;;;;;5031217;28;20060;-74
2021/12/16 14:24:22;;;;;;;0.17;0.17;;;;;;;;;;5025802;28;20049;-74
2021/12/16 14:27:05;;;;;;;0.00;0.00;;;;;;;;;;5024553;28;20040;-74
2021/12/16 14:35:00;;;;;;;0.00;0.00;;;;;;;;;;5036299;28;20037;-74
2021/12/16 14:37:52;;;;;;;1.17;0.98;;;;;;;;;;5045565;28;20079;-74
2021/12/16 14:40:36;;;;;;;0.20;0.20;;;;;;;;;;5031434;28;20144;-74
2021/12/16 14:43:18;;;;;;;0.10;0.10;;;;;;;;;;5027404;28;20041;-73
2021/12/16 14:45:53;;;;;;;0.50;0.20;;;;;;;;;;5036003;28;20797;-73
2021/12/16 14:48:28;;;;;;;2.10;1.00;;;;;;;;;;5038002;28;20049;-80
2021/12/16 14:51:00;;;;;;;0.10;0.10;;;;;;;;;;5026424;28;20029;-74
2021/12/16 14:53:26;;;;;;;34.78;0.70;;;;;;;;;;5027723;28;20026;-74
2021/12/16 14:55:54;;;;;;;0.60;0.57;;;;;;;;;;5023037;28;20413;-73
2021/12/16 14:58:22;;;;;;;0.00;0.00;;;;;;;;;;5025858;28;20033;-73
2021/12/16 15:00:52;;;;;;;0.32;0.32;;;;;;;;;;5030255;28;20048;-74
2021/12/16 15:03:21;;;;;;;0.10;0.10;;;;;;;;;;5020387;28;20450;-73
2021/12/16 15:05:52;;;;;;;1.92;0.65;;;;;;;;;;5023726;28;20484;-72
2021/12/16 15:08:33;;;;;;;0.90;0.75;;;;;;;;;;5027556;28;20389;-72
2021/12/16 15:11:00;;;;;;;0.05;0.05;;;;;;;;;;5025034;28;20104;-72
2021/12/16 15:13:34;;;;;;;0.00;0.00;;;;;;;;;;5034568;28;20036;-73
2021/12/16 15:16:27;;;;;;;0.00;0.00;;;;;;;;;;5029939;28;20065;-73
2021/12/16 15:34:42;;;;;;;0.10;0.10;;;;;;;;;;5025177;28;20095;-74
2021/12/16 15:40:59;;;;;;;0.57;0.57;;;;;;;;;;5029621;28;20374;-74
2021/12/16 15:43:32;;;;;;;1.15;1.05;;;;;;;;;;5024321;28;20684;-74
2021/12/16 15:45:58;;;;;;;0.10;0.10;;;;;;;;;;5035229;28;20033;-74
2021/12/16 15:48:29;;;;;;;0.08;0.08;;;;;;;;;;5031910;28;20472;-74
2021/12/16 15:50:57;;;;;;;0.10;0.10;;;;;;;;;;5032889;28;20028;-74
2021/12/16 15:53:25;;;;;;;0.00;0.00;;;;;;;;;;5030613;28;20037;-74
2021/12/16 15:55:57;;;;;;;0.00;0.00;;;;;;;;;;5027280;28;20468;-74
2021/12/16 15:58:28;;;;;;;0.10;0.10;;;;;;;;;;5025038;28;20026;-74
2021/12/16 16:01:04;;;;;;;0.77;0.77;;;;;;;;;;5029217;28;20060;-74
2021/12/16 16:03:30;;;;;;;0.00;0.00;;;;;;;;;;5030699;28;20010;-73
2021/12/16 16:05:58;;;;;;;0.55;0.55;;;;;;;;;;5030321;28;20045;-73
2021/12/16 16:08:25;;;;;;;0.20;0.20;;;;;;;;;;5034970;28;20030;-75
2021/12/16 16:10:53;;;;;;;0.20;0.20;;;;;;;;;;5046895;28;20107;-74
2021/12/16 16:13:21;;;;;;;0.20;0.20;;;;;;;;;;5027969;28;20373;-73
2021/12/16 16:15:48;;;;;;;0.13;0.13;;;;;;;;;;5036983;28;20120;-75
2021/12/16 16:18:32;;;;;;;0.32;0.32;;;;;;;;;;5033341;28;20714;-73
2021/12/16 16:21:11;;;;;;;0.00;0.00;;;;;;;;;;5023196;28;20025;-73
2021/12/16 16:23:38;;;;;;;0.20;0.20;;;;;;;;;;5022573;28;20087;-74
2021/12/16 16:26:08;;;;;;;0.00;0.00;;;;;;;;;;5025219;28;20503;-73
2021/12/16 16:28:38;;;;;;;0.20;0.20;;;;;;;;;;5033719;28;20049;-73
2021/12/16 16:31:06;;;;;;;0.30;0.30;;;;;;;;;;5035313;28;20451;-73
2021/12/16 16:33:33;;;;;;;7.32;0.75;;;;;;;;;;5039300;28;20555;-74
2021/12/16 16:36:03;;;;;;;0.50;0.50;;;;;;;;;;5034806;28;20030;-74
2021/12/16 16:38:31;;;;;;;0.90;0.75;;;;;;;;;;5034526;28;20091;-74
2021/12/16 16:41:01;;;;;;;0.20;0.20;;;;;;;;;;5032148;28;20022;-74
2021/12/16 16:43:32;;;;;;;0.55;0.55;;;;;;;;;;5028335;28;20057;-74
2021/12/16 16:46:01;;;;;;;0.00;0.00;;;;;;;;;;5031134;28;20072;-74
2021/12/16 16:48:46;;;;;;;0.50;0.50;;;;;;;;;;5027862;28;20132;-75
2021/12/16 16:51:15;;;;;;;0.20;0.20;;;;;;;;;;5023799;28;20029;-74
2021/12/16 16:53:47;;;;;;;0.20;0.20;;;;;;;;;;5027695;28;20029;-74
2021/12/16 16:56:13;;;;;;;0.60;0.47;;;;;;;;;;5033466;28;20118;-73
2021/12/16 16:58:39;;;;;;;0.00;0.00;;;;;;;;;;5033422;28;20041;-73
2021/12/16 17:01:06;;;;;;;0.17;0.17;;;;;;;;;;5027396;28;20026;-74
2021/12/16 17:03:31;;;;;;;0.32;0.32;;;;;;;;;;5033716;28;20040;-74
2021/12/16 17:06:00;;;;;;;0.13;0.13;;;;;;;;;;5028031;28;20025;-74
2021/12/16 17:08:33;;;;;;;0.25;0.25;;;;;;;;;;5025576;28;20429;-76
2021/12/16 17:11:02;;;;;;;0.20;0.20;;;;;;;;;;5041805;28;20128;-73
2021/12/16 17:13:38;;;;;;;0.57;0.57;;;;;;;;;;5033321;28;20028;-73
2021/12/16 17:18:40;;;;;;;2.35;0.88;;;;;;;;;;5032352;28;20128;-74
2021/12/16 17:21:20;;;;;;;1.55;1.23;;;;;;;;;;5030767;28;20022;-73
2021/12/16 17:23:50;;;;;;;0.57;0.57;;;;;;;;;;5028906;28;20037;-72
2021/12/16 17:26:24;;;;;;;0.95;0.68;;;;;;;;;;5025971;28;20514;-72
2021/12/16 17:28:51;;;;;;;1.55;1.02;;;;;;;;;;5035385;28;20110;-73
2021/12/16 17:31:29;;;;;;;0.63;0.63;;;;;;;;;;5034757;28;20129;-72
2021/12/16 17:34:04;;;;;;;4.43;1.90;;;;;;;;;;5044786;28;20036;-73
2021/12/16 17:36:32;;;;;;;2.08;1.73;;;;;;;;;;5025993;28;20032;-73
2021/12/16 17:39:06;;;;;;;1.30;0.95;;;;;;;;;;5027471;28;20025;-73
2021/12/16 17:41:33;;;;;;;0.00;0.00;;;;;;;;;;5049321;28;20038;-73
2021/12/16 17:43:59;;;;;;;0.65;0.65;;;;;;;;;;5042470;28;20049;-72
2021/12/16 17:46:24;;;;;;;0.25;0.25;;;;;;;;;;5039571;28;20111;-72
2021/12/16 17:48:51;;;;;;;0.43;0.43;;;;;;;;;;5039595;28;20033;-72
2021/12/16 17:51:19;;;;;;;0.70;0.52;;;;;;;;;;5025239;28;20029;-72
2021/12/16 17:53:46;;;;;;;2.55;0.80;;;;;;;;;;5027657;28;20395;-72